sensor_id;sensor_type;location;lat;lon;timestamp;P1;durP1;ratioP1;P2;durP2;ratioP2
46971;SDS011;32722;43.486;2.766;2022-12-10T00:00:41;99.35;;;48.97;;
46971;SDS011;32722;43.486;2.766;2022-12-10T00:03:07;110.65;;;52.13;;
46971;SDS011;32722;43.486;2.766;2022-12-10T00:05:34;174.27;;;73.03;;
46971;SDS011;32722;43.486;2.766;2022-12-10T00:08:00;99.95;;;47.70;;
46971;SDS011;32722;43.486;2.766;2022-12-10T00:10:26;178.02;;;73.57;;
46971;SDS011;32722;43.486;2.766;2022-12-10T00:12:52;250.73;;;101.55;;
46971;SDS011;32722;43.486;2.766;2022-12-10T00:15:19;229.13;;;91.60;;
46971;SDS011;32722;43.486;2.766;2022-12-10T00:17:45;322.77;;;122.78;;
46971;SDS011;32722;43.486;2.766;2022-12-10T00:20:11;391.02;;;149.88;;
46971;SDS011;32722;43.486;2.766;2022-12-10T00:22:37;382.23;;;147.45;;
46971;SDS011;32722;43.486;2.766;2022-12-10T00:25:03;286.38;;;115.57;;
46971;SDS011;32722;43.486;2.766;2022-12-10T00:27:30;190.32;;;83.18;;
46971;SDS011;32722;43.486;2.766;2022-12-10T00:29:56;207.25;;;87.57;;
46971;SDS011;32722;43.486;2.766;2022-12-10T00:32:22;54.40;;;27.33;;
46971;SDS011;32722;43.486;2.766;2022-12-10T00:34:48;206.23;;;85.63;;
46971;SDS011;32722;43.486;2.766;2022-12-10T00:37:14;109.90;;;50.85;;
46971;SDS011;32722;43.486;2.766;2022-12-10T00:39:40;78.70;;;38.55;;
46971;SDS011;32722;43.486;2.766;2022-12-10T00:42:06;90.90;;;41.85;;
46971;SDS011;32722;43.486;2.766;2022-12-10T00:44:33;53.83;;;27.50;;
46971;SDS011;32722;43.486;2.766;2022-12-10T00:46:59;47.08;;;25.40;;
46971;SDS011;32722;43.486;2.766;2022-12-10T00:49:25;38.50;;;21.35;;
46971;SDS011;32722;43.486;2.766;2022-12-10T00:51:51;52.67;;;26.98;;
46971;SDS011;32722;43.486;2.766;2022-12-10T00:54:17;50.42;;;29.65;;
46971;SDS011;32722;43.486;2.766;2022-12-10T00:56:43;32.65;;;17.52;;
46971;SDS011;32722;43.486;2.766;2022-12-10T00:59:09;28.40;;;17.75;;
46971;SDS011;32722;43.486;2.766;2022-12-10T01:01:37;19.23;;;13.20;;
46971;SDS011;32722;43.486;2.766;2022-12-10T01:04:05;22.90;;;13.63;;
46971;SDS011;32722;43.486;2.766;2022-12-10T01:06:35;19.15;;;12.10;;
46971;SDS011;32722;43.486;2.766;2022-12-10T01:09:03;15.50;;;10.23;;
46971;SDS011;32722;43.486;2.766;2022-12-10T01:11:31;16.33;;;11.02;;
46971;SDS011;32722;43.486;2.766;2022-12-10T01:13:57;14.45;;;9.45;;
46971;SDS011;32722;43.486;2.766;2022-12-10T01:16:24;19.35;;;12.63;;
46971;SDS011;32722;43.486;2.766;2022-12-10T01:18:52;11.82;;;8.10;;
46971;SDS011;32722;43.486;2.766;2022-12-10T01:21:19;10.27;;;7.57;;
46971;SDS011;32722;43.486;2.766;2022-12-10T01:23:46;10.77;;;7.60;;
46971;SDS011;32722;43.486;2.766;2022-12-10T01:26:16;10.07;;;7.60;;
46971;SDS011;32722;43.486;2.766;2022-12-10T01:28:42;9.38;;;6.53;;
46971;SDS011;32722;43.486;2.766;2022-12-10T01:31:10;7.22;;;5.65;;
46971;SDS011;32722;43.486;2.766;2022-12-10T01:33:37;6.10;;;4.45;;
46971;SDS011;32722;43.486;2.766;2022-12-10T01:36:03;7.05;;;4.53;;
46971;SDS011;32722;43.486;2.766;2022-12-10T01:38:30;5.95;;;4.43;;
46971;SDS011;32722;43.486;2.766;2022-12-10T01:40:57;6.47;;;4.43;;
46971;SDS011;32722;43.486;2.766;2022-12-10T01:43:23;6.22;;;3.80;;
46971;SDS011;32722;43.486;2.766;2022-12-10T01:45:49;5.18;;;2.95;;
46971;SDS011;32722;43.486;2.766;2022-12-10T01:48:15;5.03;;;3.75;;
46971;SDS011;32722;43.486;2.766;2022-12-10T01:50:41;5.40;;;3.95;;
46971;SDS011;32722;43.486;2.766;2022-12-10T01:53:07;5.40;;;3.63;;
46971;SDS011;32722;43.486;2.766;2022-12-10T01:55:39;4.57;;;3.47;;
46971;SDS011;32722;43.486;2.766;2022-12-10T01:58:05;4.70;;;3.35;;
46971;SDS011;32722;43.486;2.766;2022-12-10T02:00:32;4.28;;;2.97;;
46971;SDS011;32722;43.486;2.766;2022-12-10T02:03:00;4.60;;;3.28;;
46971;SDS011;32722;43.486;2.766;2022-12-10T02:05:37;6.65;;;4.07;;
46971;SDS011;32722;43.486;2.766;2022-12-10T02:13:40;3.28;;;2.17;;
46971;SDS011;32722;43.486;2.766;2022-12-10T02:16:21;3.20;;;2.65;;
46971;SDS011;32722;43.486;2.766;2022-12-10T02:19:05;2.60;;;2.13;;
46971;SDS011;32722;43.486;2.766;2022-12-10T02:21:34;3.17;;;2.28;;
46971;SDS011;32722;43.486;2.766;2022-12-10T02:24:01;3.67;;;2.70;;
46971;SDS011;32722;43.486;2.766;2022-12-10T02:26:32;2.85;;;2.20;;
46971;SDS011;32722;43.486;2.766;2022-12-10T02:31:33;4.18;;;2.53;;
46971;SDS011;32722;43.486;2.766;2022-12-10T02:34:00;3.33;;;2.50;;
46971;SDS011;32722;43.486;2.766;2022-12-10T02:36:29;3.20;;;2.70;;
46971;SDS011;32722;43.486;2.766;2022-12-10T02:38:58;3.35;;;2.80;;
46971;SDS011;32722;43.486;2.766;2022-12-10T02:41:26;5.93;;;2.15;;
46971;SDS011;32722;43.486;2.766;2022-12-10T02:43:54;2.80;;;2.30;;
46971;SDS011;32722;43.486;2.766;2022-12-10T02:46:22;2.95;;;2.55;;
46971;SDS011;32722;43.486;2.766;2022-12-10T02:48:50;3.15;;;2.53;;
46971;SDS011;32722;43.486;2.766;2022-12-10T02:51:16;2.72;;;2.42;;
46971;SDS011;32722;43.486;2.766;2022-12-10T02:53:43;3.15;;;2.83;;
46971;SDS011;32722;43.486;2.766;2022-12-10T03:06:50;5.22;;;2.75;;
46971;SDS011;32722;43.486;2.766;2022-12-10T03:09:39;2.92;;;2.65;;
46971;SDS011;32722;43.486;2.766;2022-12-10T03:12:10;4.00;;;3.15;;
46971;SDS011;32722;43.486;2.766;2022-12-10T03:14:41;4.78;;;2.92;;
46971;SDS011;32722;43.486;2.766;2022-12-10T03:17:07;4.55;;;3.30;;
46971;SDS011;32722;43.486;2.766;2022-12-10T03:19:39;3.80;;;3.35;;
46971;SDS011;32722;43.486;2.766;2022-12-10T03:22:06;3.85;;;3.10;;
46971;SDS011;32722;43.486;2.766;2022-12-10T03:24:33;4.38;;;3.53;;
46971;SDS011;32722;43.486;2.766;2022-12-10T03:27:00;4.90;;;3.90;;
46971;SDS011;32722;43.486;2.766;2022-12-10T03:29:31;4.68;;;3.85;;
46971;SDS011;32722;43.486;2.766;2022-12-10T03:31:59;4.25;;;3.53;;
46971;SDS011;32722;43.486;2.766;2022-12-10T03:34:25;6.28;;;4.25;;
46971;SDS011;32722;43.486;2.766;2022-12-10T03:36:51;5.63;;;4.85;;
46971;SDS011;32722;43.486;2.766;2022-12-10T03:39:18;5.75;;;5.07;;
46971;SDS011;32722;43.486;2.766;2022-12-10T03:41:44;6.07;;;5.47;;
46971;SDS011;32722;43.486;2.766;2022-12-10T03:44:10;4.93;;;4.38;;
46971;SDS011;32722;43.486;2.766;2022-12-10T03:46:37;5.65;;;5.05;;
46971;SDS011;32722;43.486;2.766;2022-12-10T03:49:03;7.65;;;5.25;;
46971;SDS011;32722;43.486;2.766;2022-12-10T03:51:29;6.60;;;4.55;;
46971;SDS011;32722;43.486;2.766;2022-12-10T03:53:56;7.18;;;5.53;;
46971;SDS011;32722;43.486;2.766;2022-12-10T03:56:22;6.97;;;5.30;;
46971;SDS011;32722;43.486;2.766;2022-12-10T03:58:48;7.35;;;6.45;;
46971;SDS011;32722;43.486;2.766;2022-12-10T04:01:14;5.88;;;4.95;;
46971;SDS011;32722;43.486;2.766;2022-12-10T04:03:41;6.22;;;4.82;;
46971;SDS011;32722;43.486;2.766;2022-12-10T04:06:09;5.65;;;4.57;;
46971;SDS011;32722;43.486;2.766;2022-12-10T04:08:35;6.63;;;4.65;;
46971;SDS011;32722;43.486;2.766;2022-12-10T04:11:03;6.60;;;5.57;;
46971;SDS011;32722;43.486;2.766;2022-12-10T04:13:30;7.22;;;6.00;;
46971;SDS011;32722;43.486;2.766;2022-12-10T04:16:15;8.05;;;6.15;;
46971;SDS011;32722;43.486;2.766;2022-12-10T04:18:55;7.63;;;6.53;;
46971;SDS011;32722;43.486;2.766;2022-12-10T04:21:21;6.47;;;5.55;;
46971;SDS011;32722;43.486;2.766;2022-12-10T04:24:09;8.20;;;6.85;;
46971;SDS011;32722;43.486;2.766;2022-12-10T04:26:54;7.28;;;5.80;;
46971;SDS011;32722;43.486;2.766;2022-12-10T04:29:25;9.98;;;6.32;;
46971;SDS011;32722;43.486;2.766;2022-12-10T04:31:52;7.72;;;6.35;;
46971;SDS011;32722;43.486;2.766;2022-12-10T04:34:18;8.45;;;6.28;;
46971;SDS011;32722;43.486;2.766;2022-12-10T04:36:44;9.23;;;6.90;;
46971;SDS011;32722;43.486;2.766;2022-12-10T04:39:11;8.18;;;6.57;;
46971;SDS011;32722;43.486;2.766;2022-12-10T04:41:40;7.78;;;6.07;;
46971;SDS011;32722;43.486;2.766;2022-12-10T04:44:07;7.03;;;5.15;;
46971;SDS011;32722;43.486;2.766;2022-12-10T04:46:33;8.30;;;5.50;;
46971;SDS011;32722;43.486;2.766;2022-12-10T04:49:00;6.72;;;5.05;;
46971;SDS011;32722;43.486;2.766;2022-12-10T04:51:26;6.75;;;5.40;;
46971;SDS011;32722;43.486;2.766;2022-12-10T04:53:52;7.97;;;5.72;;
46971;SDS011;32722;43.486;2.766;2022-12-10T04:56:18;8.70;;;6.38;;
46971;SDS011;32722;43.486;2.766;2022-12-10T04:58:44;7.63;;;6.82;;
46971;SDS011;32722;43.486;2.766;2022-12-10T05:01:11;6.97;;;5.82;;
46971;SDS011;32722;43.486;2.766;2022-12-10T05:03:37;7.38;;;6.35;;
46971;SDS011;32722;43.486;2.766;2022-12-10T05:06:05;9.88;;;7.95;;
46971;SDS011;32722;43.486;2.766;2022-12-10T05:08:31;10.45;;;8.25;;
46971;SDS011;32722;43.486;2.766;2022-12-10T05:11:03;11.23;;;9.52;;
46971;SDS011;32722;43.486;2.766;2022-12-10T05:13:30;11.73;;;9.30;;
46971;SDS011;32722;43.486;2.766;2022-12-10T05:15:56;12.65;;;9.63;;
46971;SDS011;32722;43.486;2.766;2022-12-10T05:18:22;12.90;;;10.15;;
46971;SDS011;32722;43.486;2.766;2022-12-10T05:20:49;13.15;;;10.32;;
46971;SDS011;32722;43.486;2.766;2022-12-10T05:23:16;12.57;;;9.73;;
46971;SDS011;32722;43.486;2.766;2022-12-10T05:26:14;14.10;;;10.20;;
46971;SDS011;32722;43.486;2.766;2022-12-10T05:28:53;12.45;;;9.70;;
46971;SDS011;32722;43.486;2.766;2022-12-10T05:31:23;13.68;;;10.30;;
46971;SDS011;32722;43.486;2.766;2022-12-10T05:33:50;12.32;;;9.77;;
46971;SDS011;32722;43.486;2.766;2022-12-10T05:36:18;12.48;;;9.85;;
46971;SDS011;32722;43.486;2.766;2022-12-10T05:38:44;14.35;;;10.00;;
46971;SDS011;32722;43.486;2.766;2022-12-10T05:41:12;13.07;;;9.75;;
46971;SDS011;32722;43.486;2.766;2022-12-10T05:43:38;13.90;;;10.40;;
46971;SDS011;32722;43.486;2.766;2022-12-10T05:46:07;12.32;;;9.20;;
46971;SDS011;32722;43.486;2.766;2022-12-10T05:48:33;12.25;;;9.05;;
46971;SDS011;32722;43.486;2.766;2022-12-10T05:51:03;12.07;;;9.25;;
46971;SDS011;32722;43.486;2.766;2022-12-10T05:53:29;13.07;;;9.45;;
46971;SDS011;32722;43.486;2.766;2022-12-10T05:55:59;10.82;;;9.00;;
46971;SDS011;32722;43.486;2.766;2022-12-10T05:58:27;15.20;;;10.52;;
46971;SDS011;32722;43.486;2.766;2022-12-10T06:00:54;13.57;;;9.70;;
46971;SDS011;32722;43.486;2.766;2022-12-10T06:03:20;17.98;;;10.15;;
46971;SDS011;32722;43.486;2.766;2022-12-10T06:05:46;13.32;;;10.00;;
46971;SDS011;32722;43.486;2.766;2022-12-10T06:08:12;13.05;;;9.77;;
46971;SDS011;32722;43.486;2.766;2022-12-10T06:10:39;13.50;;;9.32;;
46971;SDS011;32722;43.486;2.766;2022-12-10T06:13:05;11.68;;;8.55;;
46971;SDS011;32722;43.486;2.766;2022-12-10T06:15:31;12.75;;;8.82;;
46971;SDS011;32722;43.486;2.766;2022-12-10T06:17:58;11.98;;;8.98;;
46971;SDS011;32722;43.486;2.766;2022-12-10T06:20:24;11.75;;;8.60;;
46971;SDS011;32722;43.486;2.766;2022-12-10T06:22:51;12.27;;;8.32;;
46971;SDS011;32722;43.486;2.766;2022-12-10T06:25:17;9.38;;;7.63;;
46971;SDS011;32722;43.486;2.766;2022-12-10T06:27:44;8.57;;;6.50;;
46971;SDS011;32722;43.486;2.766;2022-12-10T06:30:10;9.68;;;6.75;;
46971;SDS011;32722;43.486;2.766;2022-12-10T06:32:36;8.43;;;6.45;;
46971;SDS011;32722;43.486;2.766;2022-12-10T06:35:03;7.03;;;5.78;;
46971;SDS011;32722;43.486;2.766;2022-12-10T06:37:29;8.48;;;6.50;;
46971;SDS011;32722;43.486;2.766;2022-12-10T06:39:55;8.40;;;6.40;;
46971;SDS011;32722;43.486;2.766;2022-12-10T06:42:21;8.57;;;5.55;;
46971;SDS011;32722;43.486;2.766;2022-12-10T06:44:48;8.40;;;6.30;;
46971;SDS011;32722;43.486;2.766;2022-12-10T06:47:14;7.50;;;6.10;;
46971;SDS011;32722;43.486;2.766;2022-12-10T06:49:40;8.50;;;5.97;;
46971;SDS011;32722;43.486;2.766;2022-12-10T06:52:06;8.02;;;5.72;;
46971;SDS011;32722;43.486;2.766;2022-12-10T06:54:32;7.22;;;5.90;;
46971;SDS011;32722;43.486;2.766;2022-12-10T06:56:59;10.63;;;6.50;;
46971;SDS011;32722;43.486;2.766;2022-12-10T06:59:25;10.05;;;6.57;;
46971;SDS011;32722;43.486;2.766;2022-12-10T07:01:51;9.85;;;6.97;;
46971;SDS011;32722;43.486;2.766;2022-12-10T07:04:17;7.63;;;6.20;;
46971;SDS011;32722;43.486;2.766;2022-12-10T07:06:43;10.27;;;7.18;;
46971;SDS011;32722;43.486;2.766;2022-12-10T07:09:09;9.20;;;7.28;;
46971;SDS011;32722;43.486;2.766;2022-12-10T07:11:36;8.82;;;6.95;;
46971;SDS011;32722;43.486;2.766;2022-12-10T07:14:02;8.98;;;6.57;;
46971;SDS011;32722;43.486;2.766;2022-12-10T07:16:29;8.25;;;6.60;;
46971;SDS011;32722;43.486;2.766;2022-12-10T07:18:56;54.67;;;37.10;;
46971;SDS011;32722;43.486;2.766;2022-12-10T07:21:24;11.27;;;7.63;;
46971;SDS011;32722;43.486;2.766;2022-12-10T07:23:51;7.10;;;5.60;;
46971;SDS011;32722;43.486;2.766;2022-12-10T07:26:18;7.68;;;5.30;;
46971;SDS011;32722;43.486;2.766;2022-12-10T07:28:45;6.55;;;5.47;;
46971;SDS011;32722;43.486;2.766;2022-12-10T07:31:11;7.30;;;5.85;;
46971;SDS011;32722;43.486;2.766;2022-12-10T07:33:37;7.90;;;5.88;;
46971;SDS011;32722;43.486;2.766;2022-12-10T07:36:07;7.40;;;6.20;;
46971;SDS011;32722;43.486;2.766;2022-12-10T07:38:34;8.02;;;6.05;;
46971;SDS011;32722;43.486;2.766;2022-12-10T07:41:04;7.18;;;5.82;;
46971;SDS011;32722;43.486;2.766;2022-12-10T07:43:32;7.82;;;5.78;;
46971;SDS011;32722;43.486;2.766;2022-12-10T07:46:09;7.30;;;5.85;;
46971;SDS011;32722;43.486;2.766;2022-12-10T07:48:38;8.40;;;6.20;;
46971;SDS011;32722;43.486;2.766;2022-12-10T07:51:05;11.52;;;7.07;;
46971;SDS011;32722;43.486;2.766;2022-12-10T07:53:32;9.05;;;6.05;;
46971;SDS011;32722;43.486;2.766;2022-12-10T07:55:58;11.68;;;7.38;;
46971;SDS011;32722;43.486;2.766;2022-12-10T07:58:24;9.40;;;6.28;;
46971;SDS011;32722;43.486;2.766;2022-12-10T08:00:51;8.55;;;6.38;;
46971;SDS011;32722;43.486;2.766;2022-12-10T08:03:17;17.02;;;10.35;;
46971;SDS011;32722;43.486;2.766;2022-12-10T08:05:43;10.18;;;6.93;;
46971;SDS011;32722;43.486;2.766;2022-12-10T08:08:09;16.38;;;9.00;;
46971;SDS011;32722;43.486;2.766;2022-12-10T08:10:36;14.32;;;9.00;;
46971;SDS011;32722;43.486;2.766;2022-12-10T08:13:02;11.68;;;7.65;;
46971;SDS011;32722;43.486;2.766;2022-12-10T08:15:29;12.40;;;7.68;;
46971;SDS011;32722;43.486;2.766;2022-12-10T08:17:55;10.77;;;7.43;;
46971;SDS011;32722;43.486;2.766;2022-12-10T08:20:21;12.82;;;8.20;;
46971;SDS011;32722;43.486;2.766;2022-12-10T08:22:48;12.75;;;7.75;;
46971;SDS011;32722;43.486;2.766;2022-12-10T08:25:14;13.70;;;8.57;;
46971;SDS011;32722;43.486;2.766;2022-12-10T08:27:40;12.63;;;7.97;;
46971;SDS011;32722;43.486;2.766;2022-12-10T08:30:07;15.00;;;8.45;;
46971;SDS011;32722;43.486;2.766;2022-12-10T08:32:33;10.18;;;7.20;;
46971;SDS011;32722;43.486;2.766;2022-12-10T08:34:59;11.48;;;7.47;;
46971;SDS011;32722;43.486;2.766;2022-12-10T08:37:25;10.70;;;7.38;;
46971;SDS011;32722;43.486;2.766;2022-12-10T08:39:51;9.82;;;6.78;;
46971;SDS011;32722;43.486;2.766;2022-12-10T08:42:18;8.43;;;6.68;;
46971;SDS011;32722;43.486;2.766;2022-12-10T08:44:44;9.40;;;6.70;;
46971;SDS011;32722;43.486;2.766;2022-12-10T08:47:10;10.10;;;7.22;;
46971;SDS011;32722;43.486;2.766;2022-12-10T08:49:36;13.60;;;7.75;;
46971;SDS011;32722;43.486;2.766;2022-12-10T08:52:03;14.48;;;8.73;;
46971;SDS011;32722;43.486;2.766;2022-12-10T08:54:30;11.63;;;7.20;;
46971;SDS011;32722;43.486;2.766;2022-12-10T08:56:56;19.10;;;9.70;;
46971;SDS011;32722;43.486;2.766;2022-12-10T08:59:22;11.30;;;7.60;;
46971;SDS011;32722;43.486;2.766;2022-12-10T09:01:48;9.15;;;6.30;;
46971;SDS011;32722;43.486;2.766;2022-12-10T09:04:14;9.90;;;6.32;;
46971;SDS011;32722;43.486;2.766;2022-12-10T09:06:40;10.05;;;6.47;;
46971;SDS011;32722;43.486;2.766;2022-12-10T09:09:07;10.35;;;6.15;;
46971;SDS011;32722;43.486;2.766;2022-12-10T09:11:33;10.65;;;6.38;;
46971;SDS011;32722;43.486;2.766;2022-12-10T09:14:00;7.63;;;5.75;;
46971;SDS011;32722;43.486;2.766;2022-12-10T09:16:30;8.75;;;5.40;;
46971;SDS011;32722;43.486;2.766;2022-12-10T09:18:57;13.60;;;6.85;;
46971;SDS011;32722;43.486;2.766;2022-12-10T09:21:23;11.38;;;6.70;;
46971;SDS011;32722;43.486;2.766;2022-12-10T09:23:50;7.72;;;5.07;;
46971;SDS011;32722;43.486;2.766;2022-12-10T09:26:16;7.30;;;5.28;;
46971;SDS011;32722;43.486;2.766;2022-12-10T09:28:43;8.60;;;5.07;;
46971;SDS011;32722;43.486;2.766;2022-12-10T09:31:09;7.35;;;5.20;;
46971;SDS011;32722;43.486;2.766;2022-12-10T09:33:36;6.70;;;5.13;;
46971;SDS011;32722;43.486;2.766;2022-12-10T09:36:05;9.95;;;6.10;;
46971;SDS011;32722;43.486;2.766;2022-12-10T09:38:35;7.65;;;5.60;;
46971;SDS011;32722;43.486;2.766;2022-12-10T09:41:03;9.50;;;5.95;;
46971;SDS011;32722;43.486;2.766;2022-12-10T09:43:50;9.15;;;6.38;;
46971;SDS011;32722;43.486;2.766;2022-12-10T09:46:43;9.85;;;6.35;;
46971;SDS011;32722;43.486;2.766;2022-12-10T09:51:53;8.90;;;6.22;;
46971;SDS011;32722;43.486;2.766;2022-12-10T09:54:22;9.85;;;7.00;;
46971;SDS011;32722;43.486;2.766;2022-12-10T09:56:50;10.52;;;7.07;;
46971;SDS011;32722;43.486;2.766;2022-12-10T09:59:20;9.43;;;6.93;;
46971;SDS011;32722;43.486;2.766;2022-12-10T10:04:13;12.00;;;7.00;;
46971;SDS011;32722;43.486;2.766;2022-12-10T10:06:39;10.07;;;6.53;;
46971;SDS011;32722;43.486;2.766;2022-12-10T10:09:06;9.52;;;6.95;;
46971;SDS011;32722;43.486;2.766;2022-12-10T10:11:34;11.77;;;7.55;;
46971;SDS011;32722;43.486;2.766;2022-12-10T10:14:01;12.43;;;7.78;;
46971;SDS011;32722;43.486;2.766;2022-12-10T10:16:41;12.98;;;8.95;;
46971;SDS011;32722;43.486;2.766;2022-12-10T10:19:15;12.27;;;7.63;;
46971;SDS011;32722;43.486;2.766;2022-12-10T10:21:42;13.57;;;9.05;;
46971;SDS011;32722;43.486;2.766;2022-12-10T10:24:15;12.00;;;7.85;;
46971;SDS011;32722;43.486;2.766;2022-12-10T10:26:43;11.13;;;8.10;;
46971;SDS011;32722;43.486;2.766;2022-12-10T10:29:11;13.13;;;8.88;;
46971;SDS011;32722;43.486;2.766;2022-12-10T10:31:39;11.77;;;8.05;;
46971;SDS011;32722;43.486;2.766;2022-12-10T10:34:11;11.45;;;8.48;;
46971;SDS011;32722;43.486;2.766;2022-12-10T10:36:38;11.38;;;8.68;;
46971;SDS011;32722;43.486;2.766;2022-12-10T10:39:19;13.38;;;9.07;;
46971;SDS011;32722;43.486;2.766;2022-12-10T10:41:50;13.35;;;8.68;;
46971;SDS011;32722;43.486;2.766;2022-12-10T10:44:21;12.13;;;8.55;;
46971;SDS011;32722;43.486;2.766;2022-12-10T10:46:49;13.43;;;8.95;;
46971;SDS011;32722;43.486;2.766;2022-12-10T10:49:26;12.75;;;8.77;;
46971;SDS011;32722;43.486;2.766;2022-12-10T10:51:53;12.27;;;8.63;;
46971;SDS011;32722;43.486;2.766;2022-12-10T11:00:19;11.68;;;8.00;;
46971;SDS011;32722;43.486;2.766;2022-12-10T11:02:47;10.75;;;7.72;;
46971;SDS011;32722;43.486;2.766;2022-12-10T11:07:56;12.45;;;8.55;;
46971;SDS011;32722;43.486;2.766;2022-12-10T11:10:23;12.05;;;8.23;;
46971;SDS011;32722;43.486;2.766;2022-12-10T11:12:53;11.55;;;8.00;;
46971;SDS011;32722;43.486;2.766;2022-12-10T11:17:48;11.50;;;7.90;;
46971;SDS011;32722;43.486;2.766;2022-12-10T11:20:16;13.10;;;8.52;;
46971;SDS011;32722;43.486;2.766;2022-12-10T11:22:51;14.40;;;8.95;;
46971;SDS011;32722;43.486;2.766;2022-12-10T11:25:18;14.13;;;9.07;;
46971;SDS011;32722;43.486;2.766;2022-12-10T11:40:35;13.60;;;9.50;;
46971;SDS011;32722;43.486;2.766;2022-12-10T11:45:43;14.07;;;9.27;;
46971;SDS011;32722;43.486;2.766;2022-12-10T11:50:46;18.50;;;11.30;;
46971;SDS011;32722;43.486;2.766;2022-12-10T11:53:16;16.35;;;10.45;;
46971;SDS011;32722;43.486;2.766;2022-12-10T11:55:58;10.52;;;7.95;;
46971;SDS011;32722;43.486;2.766;2022-12-10T12:01:19;14.10;;;9.35;;
46971;SDS011;32722;43.486;2.766;2022-12-10T12:04:10;11.23;;;8.38;;
46971;SDS011;32722;43.486;2.766;2022-12-10T12:14:23;9.65;;;7.30;;
46971;SDS011;32722;43.486;2.766;2022-12-10T12:16:59;9.68;;;7.03;;
46971;SDS011;32722;43.486;2.766;2022-12-10T12:19:37;12.23;;;8.02;;
46971;SDS011;32722;43.486;2.766;2022-12-10T12:22:21;9.25;;;6.88;;
46971;SDS011;32722;43.486;2.766;2022-12-10T12:24:48;10.30;;;7.28;;
46971;SDS011;32722;43.486;2.766;2022-12-10T12:29:56;10.93;;;7.55;;
46971;SDS011;32722;43.486;2.766;2022-12-10T12:32:32;21.20;;;10.95;;
46971;SDS011;32722;43.486;2.766;2022-12-10T12:35:10;9.95;;;7.32;;
46971;SDS011;32722;43.486;2.766;2022-12-10T12:37:45;8.50;;;7.05;;
46971;SDS011;32722;43.486;2.766;2022-12-10T12:43:04;12.15;;;7.63;;
46971;SDS011;32722;43.486;2.766;2022-12-10T12:45:41;9.75;;;7.43;;
46971;SDS011;32722;43.486;2.766;2022-12-10T12:51:00;10.95;;;7.55;;
46971;SDS011;32722;43.486;2.766;2022-12-10T12:53:27;8.68;;;6.70;;
46971;SDS011;32722;43.486;2.766;2022-12-10T13:01:06;10.05;;;7.95;;
46971;SDS011;32722;43.486;2.766;2022-12-10T13:03:40;11.13;;;7.82;;
46971;SDS011;32722;43.486;2.766;2022-12-10T13:08:52;11.57;;;8.50;;
46971;SDS011;32722;43.486;2.766;2022-12-10T13:11:40;10.00;;;7.15;;
46971;SDS011;32722;43.486;2.766;2022-12-10T13:25:09;7.35;;;6.15;;
46971;SDS011;32722;43.486;2.766;2022-12-10T13:29:46;9.23;;;6.60;;
46971;SDS011;32722;43.486;2.766;2022-12-10T13:32:24;8.13;;;5.97;;
46971;SDS011;32722;43.486;2.766;2022-12-10T13:37:37;8.88;;;6.85;;
46971;SDS011;32722;43.486;2.766;2022-12-10T13:42:55;9.32;;;6.43;;
46971;SDS011;32722;43.486;2.766;2022-12-10T13:45:40;7.85;;;6.05;;
46971;SDS011;32722;43.486;2.766;2022-12-10T13:50:48;10.25;;;6.85;;
46971;SDS011;32722;43.486;2.766;2022-12-10T14:06:25;10.73;;;6.80;;
46971;SDS011;32722;43.486;2.766;2022-12-10T14:09:06;9.20;;;6.63;;
46971;SDS011;32722;43.486;2.766;2022-12-10T14:11:39;9.00;;;6.45;;
46971;SDS011;32722;43.486;2.766;2022-12-10T14:14:06;7.78;;;5.95;;
46971;SDS011;32722;43.486;2.766;2022-12-10T14:16:35;9.30;;;6.68;;
46971;SDS011;32722;43.486;2.766;2022-12-10T14:19:04;8.43;;;6.00;;
46971;SDS011;32722;43.486;2.766;2022-12-10T14:21:32;7.43;;;5.50;;
46971;SDS011;32722;43.486;2.766;2022-12-10T14:23:58;8.65;;;5.63;;
46971;SDS011;32722;43.486;2.766;2022-12-10T14:26:31;7.47;;;5.68;;
46971;SDS011;32722;43.486;2.766;2022-12-10T14:31:34;8.23;;;5.32;;
46971;SDS011;32722;43.486;2.766;2022-12-10T14:34:05;7.18;;;5.43;;
46971;SDS011;32722;43.486;2.766;2022-12-10T14:36:38;11.65;;;8.43;;
46971;SDS011;32722;43.486;2.766;2022-12-10T14:39:12;10.05;;;7.05;;
46971;SDS011;32722;43.486;2.766;2022-12-10T14:41:39;7.22;;;5.63;;
46971;SDS011;32722;43.486;2.766;2022-12-10T14:44:05;13.55;;;9.40;;
46971;SDS011;32722;43.486;2.766;2022-12-10T14:46:31;8.18;;;6.63;;
46971;SDS011;32722;43.486;2.766;2022-12-10T14:48:58;7.70;;;6.15;;
46971;SDS011;32722;43.486;2.766;2022-12-10T14:51:25;7.15;;;5.28;;
46971;SDS011;32722;43.486;2.766;2022-12-10T14:53:54;8.45;;;6.25;;
46971;SDS011;32722;43.486;2.766;2022-12-10T14:56:28;19.33;;;14.05;;
46971;SDS011;32722;43.486;2.766;2022-12-10T14:59:07;8.80;;;6.07;;
46971;SDS011;32722;43.486;2.766;2022-12-10T15:01:36;8.90;;;6.10;;
46971;SDS011;32722;43.486;2.766;2022-12-10T15:04:03;11.90;;;9.18;;
46971;SDS011;32722;43.486;2.766;2022-12-10T15:06:34;27.98;;;19.20;;
46971;SDS011;32722;43.486;2.766;2022-12-10T15:11:28;9.93;;;6.60;;
46971;SDS011;32722;43.486;2.766;2022-12-10T15:13:56;8.75;;;6.70;;
46971;SDS011;32722;43.486;2.766;2022-12-10T15:16:42;374.75;;;160.02;;
46971;SDS011;32722;43.486;2.766;2022-12-10T15:21:40;9.98;;;6.70;;
46971;SDS011;32722;43.486;2.766;2022-12-10T15:24:09;10.10;;;6.40;;
46971;SDS011;32722;43.486;2.766;2022-12-10T15:26:38;9.18;;;6.07;;
46971;SDS011;32722;43.486;2.766;2022-12-10T15:31:53;9.50;;;5.75;;
46971;SDS011;32722;43.486;2.766;2022-12-10T15:34:20;8.18;;;6.03;;
46971;SDS011;32722;43.486;2.766;2022-12-10T15:36:50;10.50;;;7.10;;
46971;SDS011;32722;43.486;2.766;2022-12-10T15:39:17;8.18;;;6.18;;
46971;SDS011;32722;43.486;2.766;2022-12-10T15:41:46;8.73;;;6.00;;
46971;SDS011;32722;43.486;2.766;2022-12-10T15:44:23;10.93;;;6.60;;
46971;SDS011;32722;43.486;2.766;2022-12-10T15:47:14;12.77;;;8.27;;
46971;SDS011;32722;43.486;2.766;2022-12-10T15:49:42;8.27;;;6.00;;
46971;SDS011;32722;43.486;2.766;2022-12-10T15:52:12;16.55;;;8.70;;
46971;SDS011;32722;43.486;2.766;2022-12-10T15:54:40;15.43;;;8.32;;
46971;SDS011;32722;43.486;2.766;2022-12-10T15:57:14;8.00;;;6.57;;
46971;SDS011;32722;43.486;2.766;2022-12-10T15:59:41;12.57;;;8.60;;
46971;SDS011;32722;43.486;2.766;2022-12-10T16:02:13;15.63;;;9.35;;
46971;SDS011;32722;43.486;2.766;2022-12-10T16:04:45;11.77;;;8.38;;
46971;SDS011;32722;43.486;2.766;2022-12-10T16:07:11;21.95;;;10.80;;
46971;SDS011;32722;43.486;2.766;2022-12-10T16:09:40;8.93;;;6.45;;
46971;SDS011;32722;43.486;2.766;2022-12-10T16:12:08;10.32;;;7.22;;
46971;SDS011;32722;43.486;2.766;2022-12-10T16:14:35;9.27;;;6.15;;
46971;SDS011;32722;43.486;2.766;2022-12-10T16:17:01;10.85;;;7.93;;
46971;SDS011;32722;43.486;2.766;2022-12-10T16:19:27;19.02;;;9.73;;
46971;SDS011;32722;43.486;2.766;2022-12-10T16:21:54;10.23;;;6.82;;
46971;SDS011;32722;43.486;2.766;2022-12-10T16:24:20;10.75;;;6.68;;
46971;SDS011;32722;43.486;2.766;2022-12-10T16:26:46;13.05;;;7.97;;
46971;SDS011;32722;43.486;2.766;2022-12-10T16:29:12;11.20;;;8.18;;
46971;SDS011;32722;43.486;2.766;2022-12-10T16:31:40;10.38;;;7.70;;
46971;SDS011;32722;43.486;2.766;2022-12-10T16:34:07;9.55;;;6.30;;
46971;SDS011;32722;43.486;2.766;2022-12-10T16:36:33;8.80;;;6.45;;
46971;SDS011;32722;43.486;2.766;2022-12-10T16:39:01;7.78;;;5.80;;
46971;SDS011;32722;43.486;2.766;2022-12-10T16:41:27;20.80;;;14.48;;
46971;SDS011;32722;43.486;2.766;2022-12-10T16:43:54;11.18;;;7.32;;
46971;SDS011;32722;43.486;2.766;2022-12-10T16:46:20;10.82;;;7.35;;
46971;SDS011;32722;43.486;2.766;2022-12-10T16:48:46;9.80;;;6.55;;
46971;SDS011;32722;43.486;2.766;2022-12-10T16:51:18;11.45;;;7.80;;